sensor_id;sensor_type;location;lat;lon;timestamp;temperature;humidity
23681;DHT22;62915;50.832;4.462;2023-09-12T00:02:05;23.20;99.90
23681;DHT22;62915;50.832;4.462;2023-09-12T00:04:31;23.20;99.90
23681;DHT22;62915;50.832;4.462;2023-09-12T00:06:57;23.20;99.90
23681;DHT22;62915;50.832;4.462;2023-09-12T00:09:22;23.20;99.90
23681;DHT22;62915;50.832;4.462;2023-09-12T00:11:48;23.30;99.90
23681;DHT22;62915;50.832;4.462;2023-09-12T00:14:18;23.30;99.90
23681;DHT22;62915;50.832;4.462;2023-09-12T00:16:44;23.30;99.90
23681;DHT22;62915;50.832;4.462;2023-09-12T00:19:09;23.20;99.90
23681;DHT22;62915;50.832;4.462;2023-09-12T00:21:35;23.20;99.90
23681;DHT22;62915;50.832;4.462;2023-09-12T00:24:01;23.20;99.90
23681;DHT22;62915;50.832;4.462;2023-09-12T00:26:30;23.10;99.90
23681;DHT22;62915;50.832;4.462;2023-09-12T00:28:56;23.10;99.90
23681;DHT22;62915;50.832;4.462;2023-09-12T00:31:22;23.10;99.90
23681;DHT22;62915;50.832;4.462;2023-09-12T00:33:49;23.10;99.90
23681;DHT22;62915;50.832;4.462;2023-09-12T00:36:15;23.10;99.90
23681;DHT22;62915;50.832;4.462;2023-09-12T00:38:40;23.00;99.90
23681;DHT22;62915;50.832;4.462;2023-09-12T00:41:06;23.10;99.90
23681;DHT22;62915;50.832;4.462;2023-09-12T00:43:32;23.10;99.90
23681;DHT22;62915;50.832;4.462;2023-09-12T00:45:58;23.10;99.90
23681;DHT22;62915;50.832;4.462;2023-09-12T00:48:23;23.20;99.90
23681;DHT22;62915;50.832;4.462;2023-09-12T00:50:50;23.20;99.90
23681;DHT22;62915;50.832;4.462;2023-09-12T00:53:17;23.10;99.90
23681;DHT22;62915;50.832;4.462;2023-09-12T00:55:51;23.10;99.90
23681;DHT22;62915;50.832;4.462;2023-09-12T00:58:19;23.00;99.90
23681;DHT22;62915;50.832;4.462;2023-09-12T01:00:45;22.90;99.90
23681;DHT22;62915;50.832;4.462;2023-09-12T01:03:13;22.90;99.90
23681;DHT22;62915;50.832;4.462;2023-09-12T01:05:39;22.80;99.90
23681;DHT22;62915;50.832;4.462;2023-09-12T01:08:06;22.80;99.90
23681;DHT22;62915;50.832;4.462;2023-09-12T01:10:32;22.70;99.90
23681;DHT22;62915;50.832;4.462;2023-09-12T01:12:59;22.70;99.90
23681;DHT22;62915;50.832;4.462;2023-09-12T01:15:24;22.80;99.90
23681;DHT22;62915;50.832;4.462;2023-09-12T01:17:50;22.60;99.90
23681;DHT22;62915;50.832;4.462;2023-09-12T01:20:21;22.50;99.90
23681;DHT22;62915;50.832;4.462;2023-09-12T01:28:30;22.50;99.90
23681;DHT22;62915;50.832;4.462;2023-09-12T01:30:58;22.50;99.90
23681;DHT22;62915;50.832;4.462;2023-09-12T01:33:26;22.50;99.90
23681;DHT22;62915;50.832;4.462;2023-09-12T01:35:52;22.40;99.90
23681;DHT22;62915;50.832;4.462;2023-09-12T01:38:18;22.50;99.90
23681;DHT22;62915;50.832;4.462;2023-09-12T01:40:50;22.40;99.90
23681;DHT22;62915;50.832;4.462;2023-09-12T01:43:21;22.30;99.90
23681;DHT22;62915;50.832;4.462;2023-09-12T01:45:53;22.30;99.90
23681;DHT22;62915;50.832;4.462;2023-09-12T01:48:22;22.20;99.90
23681;DHT22;62915;50.832;4.462;2023-09-12T01:50:49;22.10;99.90
23681;DHT22;62915;50.832;4.462;2023-09-12T01:53:16;22.10;99.90
23681;DHT22;62915;50.832;4.462;2023-09-12T01:55:43;22.10;99.90
23681;DHT22;62915;50.832;4.462;2023-09-12T01:58:11;22.00;99.90
23681;DHT22;62915;50.832;4.462;2023-09-12T02:00:38;22.10;99.90
23681;DHT22;62915;50.832;4.462;2023-09-12T02:03:04;22.00;99.90
23681;DHT22;62915;50.832;4.462;2023-09-12T02:05:30;22.10;99.90
23681;DHT22;62915;50.832;4.462;2023-09-12T02:07:56;22.10;99.90
23681;DHT22;62915;50.832;4.462;2023-09-12T02:10:22;22.10;99.90
23681;DHT22;62915;50.832;4.462;2023-09-12T02:12:48;22.00;99.90
23681;DHT22;62915;50.832;4.462;2023-09-12T02:15:14;22.10;99.90
23681;DHT22;62915;50.832;4.462;2023-09-12T02:17:40;22.20;99.90
23681;DHT22;62915;50.832;4.462;2023-09-12T02:20:26;22.10;99.90
23681;DHT22;62915;50.832;4.462;2023-09-12T02:22:52;22.10;99.90
23681;DHT22;62915;50.832;4.462;2023-09-12T02:25:17;22.10;99.90
23681;DHT22;62915;50.832;4.462;2023-09-12T02:27:43;22.00;99.90
23681;DHT22;62915;50.832;4.462;2023-09-12T02:30:09;22.10;99.90
23681;DHT22;62915;50.832;4.462;2023-09-12T02:32:35;22.00;99.90
23681;DHT22;62915;50.832;4.462;2023-09-12T02:35:00;22.10;99.90
23681;DHT22;62915;50.832;4.462;2023-09-12T02:37:27;22.10;99.90
23681;DHT22;62915;50.832;4.462;2023-09-12T02:39:53;22.20;99.90
23681;DHT22;62915;50.832;4.462;2023-09-12T02:42:19;22.20;99.90
23681;DHT22;62915;50.832;4.462;2023-09-12T02:44:44;22.20;99.90
23681;DHT22;62915;50.832;4.462;2023-09-12T02:47:10;22.20;99.90
23681;DHT22;62915;50.832;4.462;2023-09-12T02:49:36;22.30;99.90
23681;DHT22;62915;50.832;4.462;2023-09-12T02:52:02;22.30;99.90
23681;DHT22;62915;50.832;4.462;2023-09-12T02:54:28;22.40;99.90
23681;DHT22;62915;50.832;4.462;2023-09-12T02:56:53;22.40;99.90
23681;DHT22;62915;50.832;4.462;2023-09-12T02:59:19;22.40;99.90
23681;DHT22;62915;50.832;4.462;2023-09-12T03:01:45;22.40;99.90
23681;DHT22;62915;50.832;4.462;2023-09-12T03:04:11;22.40;99.90
23681;DHT22;62915;50.832;4.462;2023-09-12T03:06:36;22.40;99.90
23681;DHT22;62915;50.832;4.462;2023-09-12T03:09:03;22.40;99.90
23681;DHT22;62915;50.832;4.462;2023-09-12T03:11:28;22.40;99.90
23681;DHT22;62915;50.832;4.462;2023-09-12T03:13:55;22.40;99.90
23681;DHT22;62915;50.832;4.462;2023-09-12T03:16:21;22.30;99.90
23681;DHT22;62915;50.832;4.462;2023-09-12T03:18:48;22.30;99.90
23681;DHT22;62915;50.832;4.462;2023-09-12T03:21:14;22.30;99.90
23681;DHT22;62915;50.832;4.462;2023-09-12T03:23:40;22.30;99.90
23681;DHT22;62915;50.832;4.462;2023-09-12T03:26:06;22.40;99.90
23681;DHT22;62915;50.832;4.462;2023-09-12T03:28:33;22.40;99.90
23681;DHT22;62915;50.832;4.462;2023-09-12T03:31:13;22.40;99.90
23681;DHT22;62915;50.832;4.462;2023-09-12T03:33:40;22.30;99.90
23681;DHT22;62915;50.832;4.462;2023-09-12T03:36:07;22.40;99.90
23681;DHT22;62915;50.832;4.462;2023-09-12T03:38:34;22.50;99.90
23681;DHT22;62915;50.832;4.462;2023-09-12T03:41:00;22.40;99.90
23681;DHT22;62915;50.832;4.462;2023-09-12T03:43:27;22.40;99.90
23681;DHT22;62915;50.832;4.462;2023-09-12T03:45:53;22.40;99.90
23681;DHT22;62915;50.832;4.462;2023-09-12T03:48:19;22.40;99.90
23681;DHT22;62915;50.832;4.462;2023-09-12T03:50:45;22.30;99.90
23681;DHT22;62915;50.832;4.462;2023-09-12T03:53:12;22.40;99.90
23681;DHT22;62915;50.832;4.462;2023-09-12T03:55:38;22.40;99.90
23681;DHT22;62915;50.832;4.462;2023-09-12T03:58:04;22.40;99.90
23681;DHT22;62915;50.832;4.462;2023-09-12T04:00:30;22.30;99.90
23681;DHT22;62915;50.832;4.462;2023-09-12T04:02:56;22.40;99.90
23681;DHT22;62915;50.832;4.462;2023-09-12T04:05:22;22.40;99.90
23681;DHT22;62915;50.832;4.462;2023-09-12T04:07:47;22.20;99.90
23681;DHT22;62915;50.832;4.462;2023-09-12T04:10:15;21.90;99.90
23681;DHT22;62915;50.832;4.462;2023-09-12T04:12:41;22.10;99.90
23681;DHT22;62915;50.832;4.462;2023-09-12T04:15:07;22.20;99.90
23681;DHT22;62915;50.832;4.462;2023-09-12T04:17:32;22.20;99.90
23681;DHT22;62915;50.832;4.462;2023-09-12T04:20:00;22.20;99.90
23681;DHT22;62915;50.832;4.462;2023-09-12T04:22:26;22.30;99.90
23681;DHT22;62915;50.832;4.462;2023-09-12T04:24:52;22.30;99.90
23681;DHT22;62915;50.832;4.462;2023-09-12T04:27:17;22.20;99.90
23681;DHT22;62915;50.832;4.462;2023-09-12T04:29:43;22.30;99.90
23681;DHT22;62915;50.832;4.462;2023-09-12T04:32:09;22.40;99.90
23681;DHT22;62915;50.832;4.462;2023-09-12T04:34:34;22.40;99.90
23681;DHT22;62915;50.832;4.462;2023-09-12T04:37:01;22.40;99.90
23681;DHT22;62915;50.832;4.462;2023-09-12T04:39:28;22.50;99.90
23681;DHT22;62915;50.832;4.462;2023-09-12T04:41:54;22.40;99.90
23681;DHT22;62915;50.832;4.462;2023-09-12T04:44:20;22.40;99.90
23681;DHT22;62915;50.832;4.462;2023-09-12T04:46:45;22.40;99.90
23681;DHT22;62915;50.832;4.462;2023-09-12T04:49:12;22.40;99.90
23681;DHT22;62915;50.832;4.462;2023-09-12T04:51:37;22.30;99.90
23681;DHT22;62915;50.832;4.462;2023-09-12T04:54:04;22.30;99.90
23681;DHT22;62915;50.832;4.462;2023-09-12T04:56:29;22.30;99.90
23681;DHT22;62915;50.832;4.462;2023-09-12T04:58:55;22.30;99.90
23681;DHT22;62915;50.832;4.462;2023-09-12T05:01:21;22.30;99.90
23681;DHT22;62915;50.832;4.462;2023-09-12T05:03:47;22.20;99.90
23681;DHT22;62915;50.832;4.462;2023-09-12T05:06:13;22.20;99.90
23681;DHT22;62915;50.832;4.462;2023-09-12T05:08:39;22.20;99.90
23681;DHT22;62915;50.832;4.462;2023-09-12T05:11:04;22.10;99.90
23681;DHT22;62915;50.832;4.462;2023-09-12T05:13:30;22.10;99.90
23681;DHT22;62915;50.832;4.462;2023-09-12T05:15:56;22.10;99.90
23681;DHT22;62915;50.832;4.462;2023-09-12T05:18:22;22.00;99.90
23681;DHT22;62915;50.832;4.462;2023-09-12T05:20:48;22.10;99.90
23681;DHT22;62915;50.832;4.462;2023-09-12T05:23:14;22.10;99.90
23681;DHT22;62915;50.832;4.462;2023-09-12T05:25:40;22.00;99.90
23681;DHT22;62915;50.832;4.462;2023-09-12T05:28:06;22.00;99.90
23681;DHT22;62915;50.832;4.462;2023-09-12T05:30:32;21.90;99.90
23681;DHT22;62915;50.832;4.462;2023-09-12T05:32:58;21.80;99.90
23681;DHT22;62915;50.832;4.462;2023-09-12T05:35:24;21.80;99.90
23681;DHT22;62915;50.832;4.462;2023-09-12T05:37:50;21.80;99.90
23681;DHT22;62915;50.832;4.462;2023-09-12T05:40:17;21.70;99.90
23681;DHT22;62915;50.832;4.462;2023-09-12T05:42:43;21.70;99.90
23681;DHT22;62915;50.832;4.462;2023-09-12T05:45:09;21.70;99.90
23681;DHT22;62915;50.832;4.462;2023-09-12T05:47:36;21.80;99.90
23681;DHT22;62915;50.832;4.462;2023-09-12T05:50:03;21.90;99.90
23681;DHT22;62915;50.832;4.462;2023-09-12T05:52:32;21.80;99.90
23681;DHT22;62915;50.832;4.462;2023-09-12T05:54:58;21.80;99.90
23681;DHT22;62915;50.832;4.462;2023-09-12T05:57:24;21.90;99.90
23681;DHT22;62915;50.832;4.462;2023-09-12T05:59:50;21.80;99.90
23681;DHT22;62915;50.832;4.462;2023-09-12T06:02:16;21.70;99.90
23681;DHT22;62915;50.832;4.462;2023-09-12T06:04:43;21.70;99.90
23681;DHT22;62915;50.832;4.462;2023-09-12T06:07:09;21.60;99.90
23681;DHT22;62915;50.832;4.462;2023-09-12T06:09:36;21.70;99.90
23681;DHT22;62915;50.832;4.462;2023-09-12T06:12:02;21.70;99.90
23681;DHT22;62915;50.832;4.462;2023-09-12T06:14:28;21.70;99.90
23681;DHT22;62915;50.832;4.462;2023-09-12T06:16:54;21.70;99.90
23681;DHT22;62915;50.832;4.462;2023-09-12T06:19:19;21.70;99.90
23681;DHT22;62915;50.832;4.462;2023-09-12T06:21:46;21.60;99.90
23681;DHT22;62915;50.832;4.462;2023-09-12T06:24:19;21.70;99.90
23681;DHT22;62915;50.832;4.462;2023-09-12T06:26:46;21.80;99.90
23681;DHT22;62915;50.832;4.462;2023-09-12T06:29:14;21.90;99.90
23681;DHT22;62915;50.832;4.462;2023-09-12T06:31:40;21.90;99.90
23681;DHT22;62915;50.832;4.462;2023-09-12T06:34:09;21.90;99.90
23681;DHT22;62915;50.832;4.462;2023-09-12T06:36:35;22.00;99.90
23681;DHT22;62915;50.832;4.462;2023-09-12T06:39:02;22.10;99.90
23681;DHT22;62915;50.832;4.462;2023-09-12T06:41:31;22.20;99.90
23681;DHT22;62915;50.832;4.462;2023-09-12T06:43:56;22.10;99.90
23681;DHT22;62915;50.832;4.462;2023-09-12T06:46:24;22.20;99.90
23681;DHT22;62915;50.832;4.462;2023-09-12T06:48:50;22.30;99.90
23681;DHT22;62915;50.832;4.462;2023-09-12T06:51:17;22.40;99.90
23681;DHT22;62915;50.832;4.462;2023-09-12T06:53:43;22.40;99.90
23681;DHT22;62915;50.832;4.462;2023-09-12T06:56:08;22.60;99.90
23681;DHT22;62915;50.832;4.462;2023-09-12T06:58:34;22.70;99.90
23681;DHT22;62915;50.832;4.462;2023-09-12T07:01:04;22.80;99.90
23681;DHT22;62915;50.832;4.462;2023-09-12T07:03:31;22.70;99.90
23681;DHT22;62915;50.832;4.462;2023-09-12T07:05:57;22.70;99.90
23681;DHT22;62915;50.832;4.462;2023-09-12T07:08:23;22.70;99.90
23681;DHT22;62915;50.832;4.462;2023-09-12T07:10:50;22.90;99.90
23681;DHT22;62915;50.832;4.462;2023-09-12T07:13:19;22.90;99.90
23681;DHT22;62915;50.832;4.462;2023-09-12T07:15:45;23.00;99.90
23681;DHT22;62915;50.832;4.462;2023-09-12T07:18:13;23.00;99.90
23681;DHT22;62915;50.832;4.462;2023-09-12T07:20:42;23.00;99.90
23681;DHT22;62915;50.832;4.462;2023-09-12T07:23:10;23.10;99.90
23681;DHT22;62915;50.832;4.462;2023-09-12T07:25:41;23.10;99.90
23681;DHT22;62915;50.832;4.462;2023-09-12T07:28:17;23.10;99.90
23681;DHT22;62915;50.832;4.462;2023-09-12T07:30:47;23.20;99.90
23681;DHT22;62915;50.832;4.462;2023-09-12T07:33:18;23.20;99.90
23681;DHT22;62915;50.832;4.462;2023-09-12T07:35:51;23.30;99.90
23681;DHT22;62915;50.832;4.462;2023-09-12T07:38:28;23.40;99.90
23681;DHT22;62915;50.832;4.462;2023-09-12T07:41:04;23.40;99.90
23681;DHT22;62915;50.832;4.462;2023-09-12T07:43:33;23.50;99.90
23681;DHT22;62915;50.832;4.462;2023-09-12T07:46:04;23.50;99.90
23681;DHT22;62915;50.832;4.462;2023-09-12T07:48:38;23.50;99.90
23681;DHT22;62915;50.832;4.462;2023-09-12T07:54:30;23.50;99.90
23681;DHT22;62915;50.832;4.462;2023-09-12T08:00:24;23.70;99.90
23681;DHT22;62915;50.832;4.462;2023-09-12T08:06:12;23.50;99.90
23681;DHT22;62915;50.832;4.462;2023-09-12T08:12:03;23.60;99.90
23681;DHT22;62915;50.832;4.462;2023-09-12T08:17:54;23.70;99.90
23681;DHT22;62915;50.832;4.462;2023-09-12T08:23:45;23.80;99.90
23681;DHT22;62915;50.832;4.462;2023-09-12T08:29:35;24.00;99.90
23681;DHT22;62915;50.832;4.462;2023-09-12T08:35:27;24.00;99.90
23681;DHT22;62915;50.832;4.462;2023-09-12T08:41:21;24.20;99.90
23681;DHT22;62915;50.832;4.462;2023-09-12T08:47:13;24.60;99.90
23681;DHT22;62915;50.832;4.462;2023-09-12T08:53:13;24.80;99.90
23681;DHT22;62915;50.832;4.462;2023-09-12T08:59:05;24.90;99.90
23681;DHT22;62915;50.832;4.462;2023-09-12T09:05:05;24.90;99.90
23681;DHT22;62915;50.832;4.462;2023-09-12T09:11:15;24.90;99.90
23681;DHT22;62915;50.832;4.462;2023-09-12T09:17:04;25.00;99.90
23681;DHT22;62915;50.832;4.462;2023-09-12T09:23:07;25.40;99.90
23681;DHT22;62915;50.832;4.462;2023-09-12T09:39:06;26.60;99.90
23681;DHT22;62915;50.832;4.462;2023-09-12T09:48:05;27.40;99.90
23681;DHT22;62915;50.832;4.462;2023-09-12T09:53:59;27.90;99.90
23681;DHT22;62915;50.832;4.462;2023-09-12T10:06:38;28.60;99.90
23681;DHT22;62915;50.832;4.462;2023-09-12T10:12:29;28.80;99.90
23681;DHT22;62915;50.832;4.462;2023-09-12T10:28:34;27.60;99.90
23681;DHT22;62915;50.832;4.462;2023-09-12T10:34:26;27.20;99.90
23681;DHT22;62915;50.832;4.462;2023-09-12T10:40:17;27.10;99.90
23681;DHT22;62915;50.832;4.462;2023-09-12T10:46:05;26.80;99.90
23681;DHT22;62915;50.832;4.462;2023-09-12T10:51:54;26.50;99.90
23681;DHT22;62915;50.832;4.462;2023-09-12T11:07:48;28.10;99.90
23681;DHT22;62915;50.832;4.462;2023-09-12T11:13:39;28.50;99.90
23681;DHT22;62915;50.832;4.462;2023-09-12T11:19:46;29.00;99.90
23681;DHT22;62915;50.832;4.462;2023-09-12T11:25:41;29.20;99.90
23681;DHT22;62915;50.832;4.462;2023-09-12T11:31:33;28.80;99.90
23681;DHT22;62915;50.832;4.462;2023-09-12T11:37:26;28.30;99.90
23681;DHT22;62915;50.832;4.462;2023-09-12T11:56:46;28.90;99.90
23681;DHT22;62915;50.832;4.462;2023-09-12T12:02:58;28.20;99.90
23681;DHT22;62915;50.832;4.462;2023-09-12T12:08:46;27.80;99.90
23681;DHT22;62915;50.832;4.462;2023-09-12T12:18:02;27.50;99.90
23681;DHT22;62915;50.832;4.462;2023-09-12T12:23:58;27.40;99.90
23681;DHT22;62915;50.832;4.462;2023-09-12T12:29:46;28.70;99.90
23681;DHT22;62915;50.832;4.462;2023-09-12T12:35:34;29.40;99.90
23681;DHT22;62915;50.832;4.462;2023-09-12T12:41:25;29.60;99.90
23681;DHT22;62915;50.832;4.462;2023-09-12T12:47:13;29.00;99.90
23681;DHT22;62915;50.832;4.462;2023-09-12T12:49:39;28.70;99.90
23681;DHT22;62915;50.832;4.462;2023-09-12T12:52:08;28.40;99.90
23681;DHT22;62915;50.832;4.462;2023-09-12T12:54:34;28.10;99.90
23681;DHT22;62915;50.832;4.462;2023-09-12T12:57:02;27.50;99.90
23681;DHT22;62915;50.832;4.462;2023-09-12T12:59:28;27.60;99.90
23681;DHT22;62915;50.832;4.462;2023-09-12T13:01:55;27.70;99.90
23681;DHT22;62915;50.832;4.462;2023-09-12T13:04:23;27.70;99.90
23681;DHT22;62915;50.832;4.462;2023-09-12T13:06:49;27.70;99.90
23681;DHT22;62915;50.832;4.462;2023-09-12T13:09:15;27.80;99.90
23681;DHT22;62915;50.832;4.462;2023-09-12T13:11:42;27.70;99.90
23681;DHT22;62915;50.832;4.462;2023-09-12T13:14:08;27.60;99.90
23681;DHT22;62915;50.832;4.462;2023-09-12T13:16:50;27.50;99.90
23681;DHT22;62915;50.832;4.462;2023-09-12T13:19:15;27.40;99.90
23681;DHT22;62915;50.832;4.462;2023-09-12T13:21:41;27.30;99.90
23681;DHT22;62915;50.832;4.462;2023-09-12T13:24:10;27.30;99.90
23681;DHT22;62915;50.832;4.462;2023-09-12T13:26:37;27.30;99.90
23681;DHT22;62915;50.832;4.462;2023-09-12T13:29:06;27.30;99.90
23681;DHT22;62915;50.832;4.462;2023-09-12T13:31:32;27.10;99.90
23681;DHT22;62915;50.832;4.462;2023-09-12T13:33:58;27.10;99.90
23681;DHT22;62915;50.832;4.462;2023-09-12T13:36:23;27.20;99.90
23681;DHT22;62915;50.832;4.462;2023-09-12T13:38:52;27.20;99.90
23681;DHT22;62915;50.832;4.462;2023-09-12T13:41:26;27.00;99.90
23681;DHT22;62915;50.832;4.462;2023-09-12T13:43:55;26.90;99.90
23681;DHT22;62915;50.832;4.462;2023-09-12T13:46:22;26.70;99.90
23681;DHT22;62915;50.832;4.462;2023-09-12T13:48:53;26.40;99.90
23681;DHT22;62915;50.832;4.462;2023-09-12T13:51:26;26.30;99.90
23681;DHT22;62915;50.832;4.462;2023-09-12T13:53:59;26.10;99.90
23681;DHT22;62915;50.832;4.462;2023-09-12T13:56:25;26.00;99.90
23681;DHT22;62915;50.832;4.462;2023-09-12T13:58:52;26.20;99.90
23681;DHT22;62915;50.832;4.462;2023-09-12T14:01:21;26.40;99.90
23681;DHT22;62915;50.832;4.462;2023-09-12T14:03:51;26.40;99.90
23681;DHT22;62915;50.832;4.462;2023-09-12T14:06:24;26.20;99.90
23681;DHT22;62915;50.832;4.462;2023-09-12T14:09:31;26.40;99.90
23681;DHT22;62915;50.832;4.462;2023-09-12T14:12:26;26.40;99.90
23681;DHT22;62915;50.832;4.462;2023-09-12T14:15:05;26.30;99.90
23681;DHT22;62915;50.832;4.462;2023-09-12T14:17:55;26.30;99.90
23681;DHT22;62915;50.832;4.462;2023-09-12T14:20:21;26.40;99.90
23681;DHT22;62915;50.832;4.462;2023-09-12T14:22:46;26.30;99.90
23681;DHT22;62915;50.832;4.462;2023-09-12T14:25:12;26.30;99.90
23681;DHT22;62915;50.832;4.462;2023-09-12T14:27:44;26.20;99.90
23681;DHT22;62915;50.832;4.462;2023-09-12T14:30:11;26.10;99.90
23681;DHT22;62915;50.832;4.462;2023-09-12T14:32:44;26.20;99.90
23681;DHT22;62915;50.832;4.462;2023-09-12T14:35:17;26.20;99.90
23681;DHT22;62915;50.832;4.462;2023-09-12T14:37:43;26.30;99.90
23681;DHT22;62915;50.832;4.462;2023-09-12T14:40:09;26.20;99.90
23681;DHT22;62915;50.832;4.462;2023-09-12T14:42:37;26.20;99.90
23681;DHT22;62915;50.832;4.462;2023-09-12T14:45:04;26.30;99.90
23681;DHT22;62915;50.832;4.462;2023-09-12T14:47:30;26.20;99.90
23681;DHT22;62915;50.832;4.462;2023-09-12T14:49:58;26.20;99.90
23681;DHT22;62915;50.832;4.462;2023-09-12T14:52:24;26.00;99.90
23681;DHT22;62915;50.832;4.462;2023-09-12T14:54:51;25.90;99.90
23681;DHT22;62915;50.832;4.462;2023-09-12T14:57:17;25.90;99.90
23681;DHT22;62915;50.832;4.462;2023-09-12T14:59:43;25.90;99.90
23681;DHT22;62915;50.832;4.462;2023-09-12T15:02:08;25.70;99.90
23681;DHT22;62915;50.832;4.462;2023-09-12T15:04:34;25.50;99.90
23681;DHT22;62915;50.832;4.462;2023-09-12T15:07:00;25.30;99.90
23681;DHT22;62915;50.832;4.462;2023-09-12T15:09:26;25.30;99.90
23681;DHT22;62915;50.832;4.462;2023-09-12T15:11:51;25.40;99.90
23681;DHT22;62915;50.832;4.462;2023-09-12T15:14:17;25.60;99.90
23681;DHT22;62915;50.832;4.462;2023-09-12T15:16:43;25.70;99.90
23681;DHT22;62915;50.832;4.462;2023-09-12T15:19:09;25.50;99.90
23681;DHT22;62915;50.832;4.462;2023-09-12T15:21:34;25.50;99.90
23681;DHT22;62915;50.832;4.462;2023-09-12T15:24:01;25.40;99.90
23681;DHT22;62915;50.832;4.462;2023-09-12T15:26:27;25.20;99.90
23681;DHT22;62915;50.832;4.462;2023-09-12T15:28:53;25.40;99.90
23681;DHT22;62915;50.832;4.462;2023-09-12T15:31:18;25.40;99.90
23681;DHT22;62915;50.832;4.462;2023-09-12T15:33:44;25.50;99.90
23681;DHT22;62915;50.832;4.462;2023-09-12T15:36:10;25.70;99.90
23681;DHT22;62915;50.832;4.462;2023-09-12T15:38:36;25.60;99.90
23681;DHT22;62915;50.832;4.462;2023-09-12T15:41:02;25.40;99.90
23681;DHT22;62915;50.832;4.462;2023-09-12T15:43:29;25.50;99.90
23681;DHT22;62915;50.832;4.462;2023-09-12T15:45:54;25.30;99.90
23681;DHT22;62915;50.832;4.462;2023-09-12T15:48:20;25.30;99.90
23681;DHT22;62915;50.832;4.462;2023-09-12T15:50:46;25.40;99.90
23681;DHT22;62915;50.832;4.462;2023-09-12T15:53:12;25.30;99.90
23681;DHT22;62915;50.832;4.462;2023-09-12T15:55:38;25.50;99.90
23681;DHT22;62915;50.832;4.462;2023-09-12T15:58:04;25.50;99.90
23681;DHT22;62915;50.832;4.462;2023-09-12T16:00:29;25.60;99.90
23681;DHT22;62915;50.832;4.462;2023-09-12T16:02:55;25.60;99.90
23681;DHT22;62915;50.832;4.462;2023-09-12T16:05:21;25.60;99.90
23681;DHT22;62915;50.832;4.462;2023-09-12T16:07:47;25.60;99.90
23681;DHT22;62915;50.832;4.462;2023-09-12T16:10:13;25.60;99.90
23681;DHT22;62915;50.832;4.462;2023-09-12T16:12:41;25.60;99.90
23681;DHT22;62915;50.832;4.462;2023-09-12T16:15:07;25.60;99.90
23681;DHT22;62915;50.832;4.462;2023-09-12T16:17:33;25.50;99.90
23681;DHT22;62915;50.832;4.462;2023-09-12T16:19:59;25.60;99.90
23681;DHT22;62915;50.832;4.462;2023-09-12T16:22:25;25.50;99.90
23681;DHT22;62915;50.832;4.462;2023-09-12T16:24:50;25.40;99.90
23681;DHT22;62915;50.832;4.462;2023-09-12T16:27:16;25.50;99.90
23681;DHT22;62915;50.832;4.462;2023-09-12T16:29:48;25.40;99.90
23681;DHT22;62915;50.832;4.462;2023-09-12T16:32:14;25.50;99.90
23681;DHT22;62915;50.832;4.462;2023-09-12T16:34:40;25.40;99.90
23681;DHT22;62915;50.832;4.462;2023-09-12T16:37:06;25.40;99.90
23681;DHT22;62915;50.832;4.462;2023-09-12T16:39:32;25.40;99.90
23681;DHT22;62915;50.832;4.462;2023-09-12T16:41:57;25.40;99.90
23681;DHT22;62915;50.832;4.462;2023-09-12T16:44:23;25.40;99.90
23681;DHT22;62915;50.832;4.462;2023-09-12T16:46:49;25.30;99.90
23681;DHT22;62915;50.832;4.462;2023-09-12T16:49:15;25.20;99.90
23681;DHT22;62915;50.832;4.462;2023-09-12T16:51:41;25.10;99.90
23681;DHT22;62915;50.832;4.462;2023-09-12T16:54:07;25.00;99.90
23681;DHT22;62915;50.832;4.462;2023-09-12T16:56:33;24.90;99.90
23681;DHT22;62915;50.832;4.462;2023-09-12T16:58:59;24.90;99.90
23681;DHT22;62915;50.832;4.462;2023-09-12T17:01:24;24.80;99.90
23681;DHT22;62915;50.832;4.462;2023-09-12T17:04:00;24.90;99.90
23681;DHT22;62915;50.832;4.462;2023-09-12T17:06:27;24.80;99.90
23681;DHT22;62915;50.832;4.462;2023-09-12T17:08:55;24.80;99.90
23681;DHT22;62915;50.832;4.462;2023-09-12T17:11:22;24.80;99.90
23681;DHT22;62915;50.832;4.462;2023-09-12T17:13:48;24.80;99.90
23681;DHT22;62915;50.832;4.462;2023-09-12T17:16:14;24.70;99.90
23681;DHT22;62915;50.832;4.462;2023-09-12T17:18:40;24.60;99.90
23681;DHT22;62915;50.832;4.462;2023-09-12T17:21:06;24.60;99.90
23681;DHT22;62915;50.832;4.462;2023-09-12T17:23:32;24.50;99.90
23681;DHT22;62915;50.832;4.462;2023-09-12T17:25:58;24.50;99.90
23681;DHT22;62915;50.832;4.462;2023-09-12T17:28:23;24.50;99.90
23681;DHT22;62915;50.832;4.462;2023-09-12T17:30:49;24.50;99.90
23681;DHT22;62915;50.832;4.462;2023-09-12T17:33:16;24.50;99.90
23681;DHT22;62915;50.832;4.462;2023-09-12T17:35:42;24.50;99.90
23681;DHT22;62915;50.832;4.462;2023-09-12T17:38:08;24.40;99.90
23681;DHT22;62915;50.832;4.462;2023-09-12T17:40:36;24.40;99.90
23681;DHT22;62915;50.832;4.462;2023-09-12T17:43:02;24.30;99.90
23681;DHT22;62915;50.832;4.462;2023-09-12T17:45:28;24.30;99.90
23681;DHT22;62915;50.832;4.462;2023-09-12T17:47:54;24.20;99.90
23681;DHT22;62915;50.832;4.462;2023-09-12T17:50:21;24.10;99.90
23681;DHT22;62915;50.832;4.462;2023-09-12T17:52:47;24.00;99.90
23681;DHT22;62915;50.832;4.462;2023-09-12T17:55:13;23.90;99.90
23681;DHT22;62915;50.832;4.462;2023-09-12T17:57:39;23.90;99.90
23681;DHT22;62915;50.832;4.462;2023-09-12T18:00:05;23.90;99.90
23681;DHT22;62915;50.832;4.462;2023-09-12T18:02:31;23.90;99.90
23681;DHT22;62915;50.832;4.462;2023-09-12T18:04:57;23.80;99.90
23681;DHT22;62915;50.832;4.462;2023-09-12T18:07:23;23.80;99.90
23681;DHT22;62915;50.832;4.462;2023-09-12T18:09:50;23.80;99.90
23681;DHT22;62915;50.832;4.462;2023-09-12T18:12:16;23.70;99.90
23681;DHT22;62915;50.832;4.462;2023-09-12T18:14:42;23.70;99.90
23681;DHT22;62915;50.832;4.462;2023-09-12T18:17:07;23.70;99.90
23681;DHT22;62915;50.832;4.462;2023-09-12T18:19:35;23.60;99.90
23681;DHT22;62915;50.832;4.462;2023-09-12T18:22:00;23.60;99.90
23681;DHT22;62915;50.832;4.462;2023-09-12T18:24:26;23.60;99.90
23681;DHT22;62915;50.832;4.462;2023-09-12T18:26:52;23.60;99.90
23681;DHT22;62915;50.832;4.462;2023-09-12T18:29:18;23.60;99.90
23681;DHT22;62915;50.832;4.462;2023-09-12T18:31:44;23.60;99.90
23681;DHT22;62915;50.832;4.462;2023-09-12T18:34:10;23.50;99.90
23681;DHT22;62915;50.832;4.462;2023-09-12T18:36:39;23.60;99.90
23681;DHT22;62915;50.832;4.462;2023-09-12T18:39:05;23.60;99.90
23681;DHT22;62915;50.832;4.462;2023-09-12T18:41:33;23.70;99.90
23681;DHT22;62915;50.832;4.462;2023-09-12T18:44:00;23.70;99.90
23681;DHT22;62915;50.832;4.462;2023-09-12T18:46:26;23.70;99.90
23681;DHT22;62915;50.832;4.462;2023-09-12T18:48:52;23.70;99.90
23681;DHT22;62915;50.832;4.462;2023-09-12T18:51:18;23.70;99.90
23681;DHT22;62915;50.832;4.462;2023-09-12T18:53:44;23.70;99.90